Ansley, NE (68814)

2:07 PM CST on January 30, 2015 (GMT -0600)
KNEANSLE2 | Change Station
CLOSE
Current Station
Personal Weather Station
Location: Ansley, NE
Elevation: 2320 ft
Nearby Weather Stations

Elev 2320 ft 41.29 °N, 99.38 °W | Updated 7 minutes ago

Partly Cloudy
Partly Cloudy
45.4 °F
Feels Like 40 °F
N
10.0
Wind Variable Wind from SSW
Gusts 17.0 mph

Today
High -- | Low -- °F
--% Chance of Precip.
Yesterday
High -- | Low -- °F
Precip. -- in
7:50 AM 5:51 PM
Waxing Gibbous, 84% visible
Pressure 30.30 in
Visibility 10.0 miles
Clouds Clear
Windchill 40 °F
Dew Point 28 °F
Humidity 50%
Rainfall 0.00 in
Snow Depth Not available.
UV 3 out of 12
Pollen .10 out of 12
Air Quality Not available.
Flu Activity Not available.
METAR KBBW 301953Z AUTO 18015KT 10SM CLR 08/M03 A3022 RMK AO2 SLP258 T00781033

More Conditions Fewer Conditions

Pressure 30.30 in
Visibility 10.0 miles
Clouds Clear
Windchill 40 °F
Dew Point 28 °F
Humidity 50%
Rainfall 0.00 in
Snow Depth Not available.
UV 3 out of 12
Pollen .10 out of 12
Air Quality Not available.
Flu Activity Not available.
METAR KBBW 301953Z AUTO 18015KT 10SM CLR 08/M03 A3022 RMK AO2 SLP258 T00781033

More Conditions Fewer Conditions

10-Day Weather Forecast

Almanac

Astronomy

Jan. 30, 2015 Rise Set
Actual Time
Civil Twilight
Nautical Twilight
Astronomical Twilight
Moon
Length of Visible Light
Length of Day
Tomorrow will be .
, % of the Moon is Illuminated

Today's Extremes

State Highs State Lows

Community

WunderPhotos

Upload Photos

1,791,882 photos uploaded!

WunderBlogs® & News

Nearby

Air Quality

  Air Quality AQ Index Pollutant
Not available.

Snow Depth

Station Depth Elevation

Earthquake Activity

City Distance Mag. Time & Date
Minimum magnitude displayed is 2.5.

Coastal Water Temperatures

Place Temperature

Nearby Weather Stations